createdAt,value
2022-09-06T00:01:11.733Z,99.90
2022-09-06T00:03:39.606Z,99.90
2022-09-06T00:06:16.152Z,99.90
2022-09-06T00:08:44.195Z,99.90
2022-09-06T00:11:11.634Z,99.90
2022-09-06T00:13:39.042Z,99.90
2022-09-06T00:16:20.008Z,99.90
2022-09-06T00:18:47.469Z,99.90
2022-09-06T00:21:20.765Z,99.90
2022-09-06T00:23:48.256Z,99.90
2022-09-06T00:26:15.734Z,99.90
2022-09-06T00:28:43.306Z,99.90
2022-09-06T00:31:20.692Z,99.90
2022-09-06T00:33:48.234Z,99.90
2022-09-06T00:36:15.615Z,99.90
2022-09-06T00:38:43.308Z,99.90
2022-09-06T00:41:11.738Z,99.90
2022-09-06T00:43:39.239Z,99.90
2022-09-06T00:46:07.545Z,99.90
2022-09-06T00:48:35.429Z,99.90
2022-09-06T00:51:04.215Z,99.90
2022-09-06T00:53:31.948Z,99.90
2022-09-06T00:55:59.298Z,99.90
2022-09-06T00:58:26.800Z,99.90
2022-09-06T01:00:54.348Z,99.90
2022-09-06T01:03:23.179Z,99.90
2022-09-06T01:06:13.975Z,99.90
2022-09-06T01:09:05.562Z,99.90
2022-09-06T01:11:52.408Z,99.90
2022-09-06T01:14:25.680Z,99.90
2022-09-06T01:17:30.662Z,99.90
2022-09-06T01:20:21.997Z,99.90
2022-09-06T01:23:10.807Z,99.90
2022-09-06T01:25:56.183Z,99.90
2022-09-06T01:28:46.772Z,99.90
2022-09-06T01:31:39.041Z,99.90
2022-09-06T01:34:06.366Z,99.90
2022-09-06T01:37:08.253Z,99.90
2022-09-06T01:39:34.986Z,99.90
2022-09-06T01:42:13.119Z,99.90
2022-09-06T01:44:43.780Z,99.90
2022-09-06T01:47:28.506Z,99.90
2022-09-06T01:49:55.783Z,99.90
2022-09-06T01:52:50.527Z,99.90
2022-09-06T01:55:34.910Z,99.90
2022-09-06T01:58:27.679Z,99.90
2022-09-06T02:01:14.333Z,99.90
2022-09-06T02:03:55.961Z,99.90
2022-09-06T02:06:33.563Z,99.90
2022-09-06T02:09:08.815Z,99.90
2022-09-06T02:11:40.612Z,99.90
2022-09-06T02:14:21.502Z,99.90
2022-09-06T02:16:48.975Z,99.90
2022-09-06T02:19:28.166Z,99.90
2022-09-06T02:21:55.692Z,99.90
2022-09-06T02:24:30.603Z,99.90
2022-09-06T02:26:57.979Z,99.90
2022-09-06T02:29:25.514Z,99.90
2022-09-06T02:31:59.656Z,99.90
2022-09-06T02:34:27.033Z,99.90
2022-09-06T02:36:54.732Z,99.90
2022-09-06T02:39:22.157Z,99.90
2022-09-06T02:41:49.527Z,99.90
2022-09-06T02:44:16.933Z,99.90
2022-09-06T02:46:44.335Z,99.90
2022-09-06T02:49:11.704Z,99.90
2022-09-06T02:51:39.325Z,99.90
2022-09-06T02:54:06.772Z,99.90
2022-09-06T02:56:36.446Z,99.90
2022-09-06T02:59:06.883Z,99.90
2022-09-06T03:01:34.358Z,99.90
2022-09-06T03:04:02.583Z,99.90
2022-09-06T03:06:30.257Z,99.90
2022-09-06T03:08:58.443Z,99.90
2022-09-06T03:11:26.287Z,99.90
2022-09-06T03:13:53.641Z,99.90
2022-09-06T03:16:21.060Z,99.90
2022-09-06T03:18:48.457Z,99.90
2022-09-06T03:21:15.847Z,99.90
2022-09-06T03:23:43.232Z,99.90
2022-09-06T03:26:10.639Z,99.90
2022-09-06T03:28:38.058Z,99.90
2022-09-06T03:31:05.600Z,99.90
2022-09-06T03:33:33.012Z,99.90
2022-09-06T03:36:01.228Z,99.90
2022-09-06T03:38:28.823Z,99.90
2022-09-06T03:40:56.331Z,99.90
2022-09-06T03:43:24.470Z,99.90
2022-09-06T03:45:53.194Z,99.90
2022-09-06T03:48:21.291Z,99.90
2022-09-06T03:50:49.987Z,99.90
2022-09-06T03:53:17.910Z,99.90
2022-09-06T03:55:46.270Z,99.90
2022-09-06T03:58:13.757Z,99.90
2022-09-06T04:00:41.267Z,99.90
2022-09-06T04:03:08.947Z,99.90
2022-09-06T04:05:36.355Z,99.90
2022-09-06T04:08:03.819Z,99.90
2022-09-06T04:10:31.419Z,99.90
2022-09-06T04:12:58.789Z,99.90
2022-09-06T04:15:26.139Z,99.90
2022-09-06T04:17:53.737Z,99.90
2022-09-06T04:20:21.079Z,99.90
2022-09-06T04:22:48.470Z,99.90
2022-09-06T04:25:15.951Z,99.90
2022-09-06T04:27:43.313Z,99.90
2022-09-06T04:30:10.931Z,99.90
2022-09-06T04:32:38.313Z,99.90
2022-09-06T04:35:06.171Z,99.90
2022-09-06T04:37:33.523Z,99.90
2022-09-06T04:40:01.027Z,99.90
2022-09-06T04:42:28.538Z,99.90
2022-09-06T04:44:55.898Z,99.90
2022-09-06T04:47:23.239Z,99.90
2022-09-06T04:49:50.675Z,99.90
2022-09-06T04:52:18.086Z,99.90
2022-09-06T04:54:45.459Z,99.90
2022-09-06T04:57:12.810Z,99.90
2022-09-06T04:59:40.157Z,99.90
2022-09-06T05:02:07.561Z,99.90
2022-09-06T05:04:34.989Z,99.90
2022-09-06T05:07:07.128Z,99.90
2022-09-06T05:09:34.682Z,99.90
2022-09-06T05:12:02.231Z,99.90
2022-09-06T05:14:29.677Z,99.90
2022-09-06T05:16:57.077Z,99.90
2022-09-06T05:19:24.735Z,99.90
2022-09-06T05:21:52.281Z,99.90
2022-09-06T05:24:19.716Z,99.90
2022-09-06T05:26:47.133Z,99.90
2022-09-06T05:29:14.598Z,99.90
2022-09-06T05:31:42.019Z,99.90
2022-09-06T05:34:10.512Z,99.90
2022-09-06T05:36:38.778Z,99.90
2022-09-06T05:39:06.250Z,99.90
2022-09-06T05:41:33.814Z,99.90
2022-09-06T05:44:01.220Z,99.90
2022-09-06T05:46:28.737Z,99.90
2022-09-06T05:48:58.094Z,99.90
2022-09-06T05:51:25.467Z,99.90
2022-09-06T05:53:52.918Z,99.90
2022-09-06T05:56:20.655Z,99.90
2022-09-06T05:58:48.027Z,99.90
2022-09-06T06:01:21.105Z,99.90
2022-09-06T06:03:52.799Z,99.90
2022-09-06T06:06:20.783Z,99.90
2022-09-06T06:08:48.179Z,99.90
2022-09-06T06:11:15.762Z,99.90
2022-09-06T06:13:43.455Z,99.90
2022-09-06T06:16:12.323Z,99.90
2022-09-06T06:18:39.804Z,99.90
2022-09-06T06:21:30.467Z,99.90
2022-09-06T06:23:59.362Z,99.90
2022-09-06T06:26:27.816Z,99.90
2022-09-06T06:28:57.510Z,99.90
2022-09-06T06:31:25.039Z,99.90
2022-09-06T06:33:53.036Z,99.90
2022-09-06T06:36:22.292Z,99.90
2022-09-06T06:38:50.702Z,99.90
2022-09-06T06:41:19.057Z,99.90
2022-09-06T06:43:46.469Z,99.90
2022-09-06T06:46:17.650Z,99.90
2022-09-06T06:48:45.766Z,99.90
2022-09-06T06:51:14.679Z,99.90
2022-09-06T06:53:42.136Z,99.90
2022-09-06T06:56:27.221Z,99.90
2022-09-06T06:58:57.698Z,99.90
2022-09-06T07:01:26.414Z,99.90
2022-09-06T07:03:54.513Z,99.90
2022-09-06T07:09:09.978Z,99.90
2022-09-06T07:11:37.323Z,99.90
2022-09-06T07:14:04.702Z,99.90
2022-09-06T07:16:32.104Z,99.90
2022-09-06T07:19:00.222Z,99.90
2022-09-06T07:21:43.144Z,99.90
2022-09-06T07:24:10.779Z,99.90
2022-09-06T07:26:39.387Z,99.90
2022-09-06T07:29:07.407Z,99.90
2022-09-06T07:34:22.448Z,99.90
2022-09-06T07:36:55.711Z,99.90
2022-09-06T07:39:23.237Z,99.90
2022-09-06T07:41:50.719Z,99.90
2022-09-06T07:44:18.176Z,99.90
2022-09-06T07:46:45.833Z,99.90
2022-09-06T07:49:13.349Z,99.90
2022-09-06T07:51:40.701Z,99.90
2022-09-06T07:56:55.443Z,99.90
2022-09-06T07:59:22.825Z,99.90
2022-09-06T08:01:50.521Z,99.90
2022-09-06T08:04:18.026Z,99.90
2022-09-06T08:09:35.750Z,99.90
2022-09-06T08:12:07.215Z,99.90
2022-09-06T08:14:35.113Z,99.90
2022-09-06T08:17:03.317Z,99.90
2022-09-06T08:19:30.871Z,99.90
2022-09-06T08:21:58.217Z,99.90
2022-09-06T08:24:25.766Z,99.90
2022-09-06T08:26:53.144Z,99.90
2022-09-06T08:29:20.784Z,99.30
2022-09-06T08:31:48.327Z,98.80
2022-09-06T08:34:16.021Z,98.50
2022-09-06T08:36:44.194Z,98.90
2022-09-06T08:39:11.787Z,98.90
2022-09-06T08:41:42.173Z,98.00
2022-09-06T08:47:04.630Z,97.60
2022-09-06T08:49:44.972Z,97.30
2022-09-06T08:52:33.579Z,97.00
2022-09-06T08:55:05.024Z,96.70
2022-09-06T08:57:45.737Z,96.50
2022-09-06T09:00:13.660Z,96.30
2022-09-06T09:02:46.270Z,96.20
2022-09-06T09:05:21.173Z,95.90
2022-09-06T09:08:14.594Z,95.70
2022-09-06T09:10:45.100Z,95.50
2022-09-06T09:13:22.189Z,95.70
2022-09-06T09:15:49.584Z,95.50
2022-09-06T09:18:19.838Z,95.40
2022-09-06T09:20:47.184Z,95.40
2022-09-06T09:23:14.535Z,95.30
2022-09-06T09:25:42.024Z,95.20
2022-09-06T09:28:20.194Z,95.20
2022-09-06T09:30:55.162Z,95.00
2022-09-06T09:33:28.519Z,95.00
2022-09-06T09:35:58.357Z,95.30
2022-09-06T09:38:35.278Z,94.90
2022-09-06T09:41:04.408Z,94.80
2022-09-06T09:43:36.032Z,94.70
2022-09-06T09:46:24.718Z,94.50
2022-09-06T09:49:11.101Z,94.20
2022-09-06T09:51:40.367Z,93.90
2022-09-06T09:54:12.835Z,93.40
2022-09-06T09:56:41.678Z,93.30
2022-09-06T09:59:16.836Z,92.90
2022-09-06T10:01:44.295Z,92.50
2022-09-06T10:07:16.855Z,91.90
2022-09-06T10:09:48.499Z,91.60
2022-09-06T10:12:28.538Z,91.40
2022-09-06T10:14:56.007Z,91.30
2022-09-06T10:17:32.230Z,91.30
2022-09-06T10:20:09.866Z,91.00
2022-09-06T10:23:06.551Z,90.70
2022-09-06T10:25:49.957Z,90.00
2022-09-06T10:28:46.040Z,89.60
2022-09-06T10:31:26.494Z,88.90
2022-09-06T10:34:31.672Z,88.70
2022-09-06T10:37:11.138Z,88.20
2022-09-06T10:39:51.876Z,87.90
2022-09-06T10:42:26.239Z,87.70
2022-09-06T10:44:59.452Z,87.50
2022-09-06T10:47:32.617Z,87.50
2022-09-06T10:50:00.049Z,87.40
2022-09-06T10:52:31.809Z,87.60
2022-09-06T10:55:03.558Z,88.60
2022-09-06T11:00:42.607Z,87.40
2022-09-06T11:06:22.483Z,86.90
2022-09-06T11:09:03.219Z,87.30
2022-09-06T11:11:35.575Z,85.90
2022-09-06T11:14:09.073Z,85.80
2022-09-06T11:16:42.137Z,85.60
2022-09-06T11:19:12.154Z,85.30
2022-09-06T11:22:00.966Z,86.50
2022-09-06T11:24:42.088Z,85.40
2022-09-06T11:27:28.622Z,85.30
2022-09-06T11:29:56.587Z,85.80
2022-09-06T11:32:33.153Z,86.20
2022-09-06T11:35:02.767Z,84.50
2022-09-06T11:37:36.543Z,84.60
2022-09-06T11:42:53.471Z,84.50
2022-09-06T11:45:21.899Z,84.30
2022-09-06T11:47:50.598Z,85.30
2022-09-06T11:50:21.050Z,84.70
2022-09-06T11:53:06.970Z,84.70
2022-09-06T11:55:45.543Z,84.90
2022-09-06T11:58:34.263Z,83.80
2022-09-06T12:01:14.004Z,82.70
2022-09-06T12:04:10.451Z,82.10
2022-09-06T12:06:40.912Z,82.70
2022-09-06T12:09:36.950Z,82.00
2022-09-06T12:12:04.576Z,85.90
2022-09-06T12:14:39.520Z,84.90
2022-09-06T12:17:09.902Z,84.80
2022-09-06T12:19:47.390Z,83.40
2022-09-06T12:22:37.669Z,83.90
2022-09-06T12:25:18.519Z,83.40
2022-09-06T12:27:51.935Z,83.00
2022-09-06T12:30:37.067Z,83.40
2022-09-06T12:33:11.467Z,81.70
2022-09-06T12:38:26.128Z,82.40
2022-09-06T12:40:58.330Z,81.20
2022-09-06T12:43:25.994Z,81.90
2022-09-06T12:45:53.388Z,81.80
2022-09-06T12:48:41.387Z,81.90
2022-09-06T12:51:16.129Z,81.40
2022-09-06T12:53:58.783Z,82.60
2022-09-06T12:56:27.188Z,83.40
2022-09-06T12:59:10.755Z,82.90
2022-09-06T13:01:38.287Z,84.30
2022-09-06T13:04:07.598Z,81.60
2022-09-06T13:06:38.342Z,81.90
2022-09-06T13:09:05.678Z,82.80
2022-09-06T13:11:34.951Z,84.40
2022-09-06T13:14:02.354Z,83.10
2022-09-06T13:16:37.001Z,83.40
2022-09-06T13:19:34.467Z,83.90
2022-09-06T13:22:03.759Z,82.80
2022-09-06T13:24:37.339Z,83.70
2022-09-06T13:27:45.846Z,82.50
2022-09-06T13:30:42.505Z,82.20
2022-09-06T13:33:31.098Z,83.10
2022-09-06T13:36:28.283Z,82.50
2022-09-06T13:38:55.644Z,83.20
2022-09-06T13:41:26.128Z,84.60
2022-09-06T13:44:04.851Z,84.80
2022-09-06T13:46:33.276Z,86.10
2022-09-06T13:49:00.729Z,87.10
2022-09-06T13:51:28.299Z,88.20
2022-09-06T13:54:10.510Z,87.80
2022-09-06T13:56:39.259Z,86.90
2022-09-06T13:59:07.278Z,86.40
2022-09-06T14:01:34.758Z,86.30
2022-09-06T14:04:02.503Z,86.00
2022-09-06T14:06:32.475Z,85.80
2022-09-06T14:09:07.334Z,85.00
2022-09-06T14:11:35.740Z,84.50
2022-09-06T14:14:03.211Z,84.90
2022-09-06T14:16:30.743Z,83.50
2022-09-06T14:18:58.226Z,84.00
2022-09-06T14:21:25.645Z,83.70
2022-09-06T14:23:53.099Z,83.30
2022-09-06T14:26:21.214Z,84.10
2022-09-06T14:28:48.924Z,82.20
2022-09-06T14:31:18.106Z,83.20
2022-09-06T14:33:45.598Z,84.60
2022-09-06T14:36:14.669Z,83.80
2022-09-06T14:38:43.600Z,84.40
2022-09-06T14:41:11.222Z,84.10
2022-09-06T14:43:38.760Z,84.90
2022-09-06T14:46:10.568Z,85.20
2022-09-06T14:48:42.103Z,84.20
2022-09-06T14:51:10.936Z,84.10
2022-09-06T14:53:42.549Z,85.60
2022-09-06T14:56:10.332Z,85.80
2022-09-06T14:58:38.567Z,86.50
2022-09-06T15:01:38.577Z,86.40
2022-09-06T15:04:07.978Z,86.70
2022-09-06T15:06:36.936Z,87.20
2022-09-06T15:09:05.400Z,87.90
2022-09-06T15:11:39.962Z,86.70
2022-09-06T15:14:09.276Z,86.10
2022-09-06T15:16:36.703Z,87.30
2022-09-06T15:19:04.224Z,86.20
2022-09-06T15:21:31.823Z,86.80
2022-09-06T15:24:00.338Z,86.20
2022-09-06T15:26:28.139Z,85.90
2022-09-06T15:28:55.538Z,87.90
2022-09-06T15:31:22.996Z,85.80
2022-09-06T15:33:51.036Z,86.00
2022-09-06T15:36:18.638Z,86.30
2022-09-06T15:38:48.027Z,86.50
2022-09-06T15:41:19.390Z,87.00
2022-09-06T15:43:48.162Z,88.70
2022-09-06T15:46:16.295Z,86.90
2022-09-06T15:48:45.290Z,87.40
2022-09-06T15:51:14.793Z,87.20
2022-09-06T15:53:42.596Z,86.60
2022-09-06T15:56:12.416Z,86.20
2022-09-06T15:58:40.089Z,85.40
2022-09-06T16:01:18.487Z,85.70
2022-09-06T16:03:47.489Z,86.30
2022-09-06T16:08:58.856Z,84.50
2022-09-06T16:11:26.654Z,84.70
2022-09-06T16:13:54.268Z,84.70
2022-09-06T16:16:22.717Z,84.60
2022-09-06T16:18:52.226Z,83.80
2022-09-06T16:21:24.529Z,85.20
2022-09-06T16:24:02.670Z,85.60
2022-09-06T16:26:34.675Z,85.00
2022-09-06T16:29:02.549Z,84.70
2022-09-06T16:31:30.129Z,84.80
2022-09-06T16:33:57.997Z,84.70
2022-09-06T16:36:25.654Z,86.10
2022-09-06T16:38:53.217Z,85.80
2022-09-06T16:41:36.334Z,85.10
2022-09-06T16:44:03.787Z,85.30
2022-09-06T16:46:31.517Z,85.50
2022-09-06T16:49:01.497Z,84.70
2022-09-06T16:51:29.573Z,83.60
2022-09-06T16:53:57.004Z,84.70
2022-09-06T16:56:29.468Z,84.50
2022-09-06T16:58:58.620Z,84.90
2022-09-06T17:01:27.098Z,85.40
2022-09-06T17:03:54.738Z,86.10
2022-09-06T17:06:28.868Z,87.50
2022-09-06T17:09:00.048Z,87.40
2022-09-06T17:11:27.974Z,88.00
2022-09-06T17:13:55.610Z,88.40
2022-09-06T17:16:41.883Z,88.60
2022-09-06T17:19:09.735Z,89.00
2022-09-06T17:21:39.134Z,89.60
2022-09-06T17:24:07.311Z,90.00
2022-09-06T17:26:36.176Z,90.00
2022-09-06T17:29:03.760Z,90.30
2022-09-06T17:31:31.157Z,90.80
2022-09-06T17:33:59.830Z,90.90
2022-09-06T17:36:29.831Z,91.00
2022-09-06T17:39:05.037Z,91.20
2022-09-06T17:41:37.107Z,91.30
2022-09-06T17:44:10.981Z,91.50
2022-09-06T17:46:47.656Z,91.70
2022-09-06T17:49:19.764Z,91.90
2022-09-06T17:51:47.308Z,92.20
2022-09-06T17:54:15.232Z,92.50
2022-09-06T17:56:42.790Z,92.70
2022-09-06T17:59:13.513Z,92.80
2022-09-06T18:01:41.563Z,93.00
2022-09-06T18:04:09.623Z,93.30
2022-09-06T18:06:40.017Z,93.50
2022-09-06T18:09:14.532Z,93.80
2022-09-06T18:11:42.463Z,94.00
2022-09-06T18:14:11.211Z,94.20
2022-09-06T18:16:40.439Z,94.40
2022-09-06T18:19:08.285Z,94.60
2022-09-06T18:21:37.614Z,94.80
2022-09-06T18:24:05.664Z,95.00
2022-09-06T18:26:33.176Z,95.20
2022-09-06T18:29:00.954Z,95.40
2022-09-06T18:31:28.521Z,95.70
2022-09-06T18:33:59.863Z,95.80
2022-09-06T18:36:31.922Z,96.00
2022-09-06T18:39:04.151Z,96.20
2022-09-06T18:42:04.643Z,96.30
2022-09-06T18:44:33.065Z,96.50
2022-09-06T18:47:02.822Z,96.60
2022-09-06T18:49:30.816Z,96.80
2022-09-06T18:51:58.362Z,97.10
2022-09-06T18:54:25.979Z,97.40
2022-09-06T18:56:53.368Z,97.80
2022-09-06T18:59:20.816Z,98.00
2022-09-06T19:01:48.309Z,98.30
2022-09-06T19:04:15.790Z,98.50
2022-09-06T19:06:43.955Z,98.60
2022-09-06T19:09:13.038Z,98.80
2022-09-06T19:11:42.736Z,99.00
2022-09-06T19:14:10.116Z,99.00
2022-09-06T19:16:37.679Z,99.10
2022-09-06T19:19:07.057Z,99.40
2022-09-06T19:21:39.198Z,99.60
2022-09-06T19:24:10.189Z,99.80
2022-09-06T19:26:38.898Z,99.90
2022-09-06T19:29:09.105Z,99.90
2022-09-06T19:31:37.116Z,99.90
2022-09-06T19:34:04.876Z,99.90
2022-09-06T19:36:32.698Z,99.90
2022-09-06T19:39:05.466Z,99.90
2022-09-06T19:41:38.012Z,99.90
2022-09-06T19:44:05.907Z,99.90
2022-09-06T19:46:34.898Z,99.90
2022-09-06T19:49:02.543Z,99.80
2022-09-06T19:51:30.187Z,99.90
2022-09-06T19:53:58.083Z,99.60
2022-09-06T19:56:32.632Z,99.60
2022-09-06T19:59:05.128Z,99.70
2022-09-06T20:01:33.469Z,99.80
2022-09-06T20:04:02.843Z,99.90
2022-09-06T20:06:30.571Z,99.90
2022-09-06T20:08:58.402Z,99.90
2022-09-06T20:11:27.912Z,99.90
2022-09-06T20:13:55.809Z,99.90
2022-09-06T20:16:24.881Z,99.90
2022-09-06T20:18:55.767Z,99.90
2022-09-06T20:21:23.338Z,99.90
2022-09-06T20:23:51.827Z,99.90
2022-09-06T20:26:19.636Z,99.90
2022-09-06T20:28:47.485Z,99.90
2022-09-06T20:31:17.877Z,99.90
2022-09-06T20:33:49.404Z,99.90
2022-09-06T20:36:17.982Z,99.90
2022-09-06T20:38:45.999Z,99.90
2022-09-06T20:41:17.772Z,99.90
2022-09-06T20:43:45.283Z,99.90
2022-09-06T20:46:17.050Z,99.90
2022-09-06T20:48:45.434Z,99.90
2022-09-06T20:51:15.651Z,99.90
2022-09-06T20:53:43.184Z,99.90
2022-09-06T20:56:15.312Z,99.90
2022-09-06T20:58:42.931Z,99.90
2022-09-06T21:01:11.812Z,99.90
2022-09-06T21:03:40.120Z,99.90
2022-09-06T21:06:08.772Z,99.90
2022-09-06T21:08:39.497Z,99.90
2022-09-06T21:11:10.060Z,99.90
2022-09-06T21:13:37.514Z,99.90
2022-09-06T21:16:05.447Z,99.90
2022-09-06T21:18:33.522Z,99.90
2022-09-06T21:21:05.086Z,99.90
2022-09-06T21:23:34.324Z,99.90
2022-09-06T21:26:06.707Z,99.90
2022-09-06T21:28:36.540Z,99.90
2022-09-06T21:31:12.825Z,99.90
2022-09-06T21:33:44.581Z,99.90
2022-09-06T21:36:13.756Z,99.90
2022-09-06T21:38:43.647Z,99.90
2022-09-06T21:41:11.355Z,99.90
2022-09-06T21:43:38.835Z,99.90
2022-09-06T21:46:08.210Z,99.90
2022-09-06T21:48:39.589Z,99.90
2022-09-06T21:51:07.906Z,99.90
2022-09-06T21:53:35.816Z,99.90
2022-09-06T21:56:04.002Z,99.90
2022-09-06T21:58:31.609Z,99.90
2022-09-06T22:00:59.516Z,99.90
2022-09-06T22:03:33.247Z,99.90
2022-09-06T22:06:14.806Z,99.90
2022-09-06T22:08:43.305Z,99.90
2022-09-06T22:11:15.772Z,99.90
2022-09-06T22:13:43.515Z,99.90
2022-09-06T22:16:11.679Z,99.90
2022-09-06T22:18:39.341Z,99.90
2022-09-06T22:21:09.180Z,99.90
2022-09-06T22:23:36.647Z,99.90
2022-09-06T22:26:09.097Z,99.90
2022-09-06T22:28:36.698Z,99.90
2022-09-06T22:31:04.414Z,99.90
2022-09-06T22:33:31.820Z,99.90
2022-09-06T22:36:00.470Z,99.90
2022-09-06T22:38:28.823Z,99.90
2022-09-06T22:40:57.260Z,99.90
2022-09-06T22:43:24.730Z,99.90
2022-09-06T22:45:52.339Z,99.90
2022-09-06T22:48:19.784Z,99.90
2022-09-06T22:50:47.174Z,99.90
2022-09-06T22:53:14.549Z,99.90
2022-09-06T22:55:46.145Z,99.90
2022-09-06T22:58:13.668Z,99.90
2022-09-06T23:00:41.094Z,99.90
2022-09-06T23:03:08.534Z,99.90
2022-09-06T23:05:35.941Z,99.90
2022-09-06T23:08:03.869Z,99.90
2022-09-06T23:10:31.678Z,99.90
2022-09-06T23:12:59.068Z,99.90
2022-09-06T23:15:26.494Z,99.90
2022-09-06T23:17:53.958Z,99.90
2022-09-06T23:20:21.469Z,99.90
2022-09-06T23:22:48.859Z,99.90
2022-09-06T23:25:16.342Z,99.90
2022-09-06T23:27:43.764Z,99.90
2022-09-06T23:30:11.593Z,99.90
2022-09-06T23:32:39.030Z,99.90
2022-09-06T23:35:06.783Z,99.90
2022-09-06T23:37:34.197Z,99.90
2022-09-06T23:40:03.785Z,99.90
2022-09-06T23:42:34.417Z,99.90
2022-09-06T23:45:01.846Z,99.90
2022-09-06T23:47:29.262Z,99.90
2022-09-06T23:49:56.651Z,99.90
2022-09-06T23:52:24.107Z,99.90
2022-09-06T23:54:51.498Z,99.90
2022-09-06T23:57:18.904Z,99.90
2022-09-06T23:59:46.286Z,99.90
